createdAt,value
2022-09-23T00:01:15.271Z,38.57
2022-09-23T00:03:44.260Z,38.74
2022-09-23T00:06:13.542Z,38.56
2022-09-23T00:08:41.877Z,38.65
2022-09-23T00:11:14.183Z,38.75
2022-09-23T00:13:43.259Z,39.23
2022-09-23T00:16:12.759Z,39.22
2022-09-23T00:18:40.919Z,38.42
2022-09-23T00:21:11.106Z,38.85
2022-09-23T00:23:39.625Z,38.56
2022-09-23T00:26:12.062Z,38.75
2022-09-23T00:28:39.944Z,38.99
2022-09-23T00:31:09.597Z,38.79
2022-09-23T00:33:37.898Z,38.93
2022-09-23T00:36:07.320Z,39.21
2022-09-23T00:38:35.641Z,39.79
2022-09-23T00:41:07.152Z,39.51
2022-09-23T00:43:39.754Z,39.81
2022-09-23T00:46:09.438Z,40.03
2022-09-23T00:48:39.813Z,39.99
2022-09-23T00:51:09.339Z,40.46
2022-09-23T00:53:37.405Z,40.50
2022-09-23T00:56:08.431Z,40.59
2022-09-23T00:58:38.189Z,40.67
2022-09-23T01:01:06.817Z,40.70
2022-09-23T01:03:34.962Z,41.03
2022-09-23T01:06:03.119Z,41.25
2022-09-23T01:08:32.267Z,41.58
2022-09-23T01:11:07.140Z,41.75
2022-09-23T01:13:50.610Z,42.25
2022-09-23T01:16:23.647Z,42.34
2022-09-23T01:18:51.625Z,42.60
2022-09-23T01:21:22.497Z,42.37
2022-09-23T01:24:09.550Z,42.94
2022-09-23T01:27:00.239Z,43.08
2022-09-23T01:29:30.945Z,43.50
2022-09-23T01:31:58.840Z,43.38
2022-09-23T01:34:33.390Z,43.70
2022-09-23T01:37:10.508Z,44.05
2022-09-23T01:39:41.400Z,44.04
2022-09-23T01:42:09.499Z,44.46
2022-09-23T01:44:44.104Z,44.81
2022-09-23T01:47:16.745Z,44.80
2022-09-23T01:50:26.013Z,45.12
2022-09-23T01:52:56.442Z,45.08
2022-09-23T01:55:28.516Z,45.42
2022-09-23T01:58:06.185Z,45.38
2022-09-23T02:00:36.920Z,45.73
2022-09-23T02:03:16.759Z,45.83
2022-09-23T02:05:48.732Z,46.52
2022-09-23T02:08:20.401Z,46.08
2022-09-23T02:10:50.505Z,46.24
2022-09-23T02:13:25.713Z,46.37
2022-09-23T02:15:56.590Z,46.67
2022-09-23T02:18:29.704Z,46.81
2022-09-23T02:21:01.384Z,46.89
2022-09-23T02:23:33.338Z,47.35
2022-09-23T02:26:08.420Z,47.55
2022-09-23T02:28:42.352Z,47.71
2022-09-23T02:31:16.265Z,47.58
2022-09-23T02:34:07.345Z,48.48
2022-09-23T02:36:41.659Z,48.04
2022-09-23T02:39:12.748Z,47.94
2022-09-23T02:41:59.280Z,48.15
2022-09-23T02:44:29.070Z,48.43
2022-09-23T02:46:57.833Z,48.34
2022-09-23T02:49:30.496Z,48.32
2022-09-23T02:52:01.238Z,48.52
2022-09-23T02:54:30.340Z,49.07
2022-09-23T02:56:59.145Z,48.52
2022-09-23T02:59:27.140Z,48.61
2022-09-23T03:01:57.905Z,48.59
2022-09-23T03:04:32.585Z,48.53
2022-09-23T03:07:03.468Z,48.49
2022-09-23T03:09:35.115Z,48.45
2022-09-23T03:12:16.590Z,48.58
2022-09-23T03:15:04.590Z,48.56
2022-09-23T03:17:44.744Z,48.39
2022-09-23T03:20:35.245Z,48.21
2022-09-23T03:23:07.625Z,47.86
2022-09-23T03:25:37.864Z,47.96
2022-09-23T03:28:06.640Z,47.93
2022-09-23T03:30:37.664Z,47.88
2022-09-23T03:33:07.139Z,47.82
2022-09-23T03:35:59.941Z,47.81
2022-09-23T03:38:31.300Z,47.72
2022-09-23T03:41:00.664Z,47.87
2022-09-23T03:43:30.012Z,47.73
2022-09-23T03:45:58.748Z,47.98
2022-09-23T03:48:26.819Z,47.76
2022-09-23T03:50:54.724Z,47.93
2022-09-23T03:53:23.079Z,47.85
2022-09-23T03:55:51.104Z,47.83
2022-09-23T03:58:18.984Z,47.93
2022-09-23T04:00:47.614Z,47.90
2022-09-23T04:03:15.629Z,48.03
2022-09-23T04:05:43.948Z,48.11
2022-09-23T04:08:11.959Z,48.09
2022-09-23T04:10:41.875Z,48.29
2022-09-23T04:13:10.506Z,48.28
2022-09-23T04:15:38.559Z,48.41
2022-09-23T04:18:06.506Z,48.61
2022-09-23T04:20:34.460Z,48.73
2022-09-23T04:23:02.346Z,48.89
2022-09-23T04:25:30.324Z,49.06
2022-09-23T04:27:58.514Z,49.21
2022-09-23T04:30:26.504Z,49.35
2022-09-23T04:32:54.518Z,49.57
2022-09-23T04:35:22.485Z,49.71
2022-09-23T04:37:50.504Z,49.78
2022-09-23T04:40:18.527Z,49.91
2022-09-23T04:42:46.487Z,50.14
2022-09-23T04:45:14.419Z,50.28
2022-09-23T04:47:42.342Z,50.51
2022-09-23T04:50:10.659Z,50.34
2022-09-23T04:52:38.620Z,50.48
2022-09-23T04:55:11.111Z,50.64
2022-09-23T04:57:39.619Z,50.74
2022-09-23T05:00:07.944Z,51.04
2022-09-23T05:02:36.519Z,51.06
2022-09-23T05:05:04.888Z,51.29
2022-09-23T05:07:32.745Z,51.30
2022-09-23T05:10:00.593Z,51.58
2022-09-23T05:12:28.436Z,51.52
2022-09-23T05:14:56.901Z,51.52
2022-09-23T05:17:24.910Z,51.82
2022-09-23T05:19:52.904Z,51.96
2022-09-23T05:22:21.059Z,52.14
2022-09-23T05:24:48.913Z,52.26
2022-09-23T05:27:16.745Z,52.39
2022-09-23T05:29:45.079Z,52.16
2022-09-23T05:32:12.917Z,52.52
2022-09-23T05:34:40.748Z,52.47
2022-09-23T05:37:08.740Z,52.65
2022-09-23T05:39:36.720Z,52.74
2022-09-23T05:42:05.037Z,52.94
2022-09-23T05:44:33.081Z,52.95
2022-09-23T05:47:01.089Z,53.32
2022-09-23T05:49:48.287Z,53.32
2022-09-23T05:52:18.220Z,53.49
2022-09-23T05:54:46.134Z,53.44
2022-09-23T05:57:14.153Z,53.39
2022-09-23T05:59:43.480Z,53.60
2022-09-23T06:02:11.475Z,53.84
2022-09-23T06:04:39.409Z,53.72
2022-09-23T06:07:07.372Z,54.25
2022-09-23T06:09:36.789Z,54.31
2022-09-23T06:12:05.706Z,54.40
2022-09-23T06:14:33.533Z,54.23
2022-09-23T06:17:01.539Z,54.48
2022-09-23T06:19:29.538Z,54.79
2022-09-23T06:21:57.399Z,54.74
2022-09-23T06:24:30.859Z,54.94
2022-09-23T06:26:59.440Z,54.85
2022-09-23T06:29:27.405Z,54.98
2022-09-23T06:31:55.343Z,55.30
2022-09-23T06:34:23.305Z,55.51
2022-09-23T06:36:52.583Z,55.40
2022-09-23T06:39:20.426Z,55.70
2022-09-23T06:41:48.559Z,55.68
2022-09-23T06:44:16.579Z,55.75
2022-09-23T06:46:44.906Z,55.85
2022-09-23T06:49:14.233Z,56.17
2022-09-23T06:51:42.495Z,56.34
2022-09-23T06:54:11.947Z,56.28
2022-09-23T06:56:40.587Z,56.62
2022-09-23T06:59:10.953Z,56.52
2022-09-23T07:01:39.326Z,56.54
2022-09-23T07:04:08.391Z,56.83
2022-09-23T07:06:36.422Z,56.86
2022-09-23T07:09:05.023Z,56.83
2022-09-23T07:11:33.061Z,56.92
2022-09-23T07:14:01.062Z,57.17
2022-09-23T07:16:29.109Z,57.18
2022-09-23T07:18:57.219Z,57.34
2022-09-23T07:21:25.218Z,57.29
2022-09-23T07:23:53.068Z,57.57
2022-09-23T07:26:21.544Z,57.53
2022-09-23T07:28:49.549Z,57.77
2022-09-23T07:31:29.633Z,57.80
2022-09-23T07:34:03.440Z,57.96
2022-09-23T07:36:36.181Z,58.11
2022-09-23T07:39:04.560Z,58.15
2022-09-23T07:41:33.140Z,58.27
2022-09-23T07:44:04.001Z,58.57
2022-09-23T07:46:32.976Z,58.33
2022-09-23T07:49:04.235Z,58.57
2022-09-23T07:51:36.407Z,58.46
2022-09-23T07:54:08.965Z,58.78
2022-09-23T07:56:37.865Z,58.69
2022-09-23T07:59:06.600Z,58.97
2022-09-23T08:01:36.760Z,58.97
2022-09-23T08:04:06.666Z,59.14
2022-09-23T08:06:35.139Z,59.35
2022-09-23T08:09:03.342Z,59.51
2022-09-23T08:11:32.260Z,59.34
2022-09-23T08:14:00.120Z,59.43
2022-09-23T08:16:28.148Z,59.60
2022-09-23T08:18:56.115Z,59.66
2022-09-23T08:21:26.459Z,59.46
2022-09-23T08:23:54.344Z,59.64
2022-09-23T08:26:22.628Z,59.81
2022-09-23T08:28:54.724Z,59.94
2022-09-23T08:31:23.724Z,59.97
2022-09-23T08:33:56.763Z,60.04
2022-09-23T08:36:25.239Z,60.20
2022-09-23T08:38:53.161Z,60.24
2022-09-23T08:41:28.902Z,60.33
2022-09-23T08:43:59.177Z,60.49
2022-09-23T08:46:29.392Z,60.78
2022-09-23T08:48:57.820Z,60.88
2022-09-23T08:51:32.110Z,60.85
2022-09-23T08:54:01.064Z,60.82
2022-09-23T08:56:30.031Z,60.92
2022-09-23T08:59:10.411Z,61.19
2022-09-23T09:01:43.230Z,61.11
2022-09-23T09:04:28.419Z,61.30
2022-09-23T09:07:32.207Z,61.46
2022-09-23T09:10:04.071Z,61.37
2022-09-23T09:12:35.120Z,61.66
2022-09-23T09:15:08.422Z,61.54
2022-09-23T09:17:39.153Z,61.58
2022-09-23T09:20:21.039Z,61.59
2022-09-23T09:22:58.342Z,61.70
2022-09-23T09:25:28.720Z,61.86
2022-09-23T09:27:59.439Z,61.91
2022-09-23T09:30:29.184Z,61.84
2022-09-23T09:33:03.469Z,62.01
2022-09-23T09:35:38.659Z,62.03
2022-09-23T09:38:09.319Z,62.23
2022-09-23T09:40:44.025Z,62.12
2022-09-23T09:43:12.104Z,62.42
2022-09-23T09:46:05.381Z,62.36
2022-09-23T09:48:39.478Z,62.43
2022-09-23T09:51:19.749Z,62.54
2022-09-23T09:53:47.729Z,62.53
2022-09-23T09:56:17.393Z,62.65
2022-09-23T09:58:47.892Z,62.64
2022-09-23T10:01:29.845Z,62.69
2022-09-23T10:03:59.567Z,62.68
2022-09-23T10:06:33.910Z,62.69
2022-09-23T10:09:20.205Z,62.62
2022-09-23T10:12:05.383Z,62.81
2022-09-23T10:14:33.322Z,62.70
2022-09-23T10:17:06.467Z,62.80
2022-09-23T10:19:36.957Z,62.89
2022-09-23T10:22:06.536Z,62.87
2022-09-23T10:24:37.965Z,62.67
2022-09-23T10:27:10.575Z,63.07
2022-09-23T10:29:40.202Z,62.93
2022-09-23T10:32:31.097Z,63.00
2022-09-23T10:34:59.079Z,63.14
2022-09-23T10:37:35.025Z,63.23
2022-09-23T10:40:31.278Z,63.06
2022-09-23T10:43:36.083Z,63.21
2022-09-23T10:46:25.147Z,63.07
2022-09-23T10:48:53.014Z,63.13
2022-09-23T10:51:28.373Z,63.49
2022-09-23T10:54:07.096Z,63.35
2022-09-23T10:56:44.218Z,63.31
2022-09-23T10:59:41.175Z,63.35
2022-09-23T11:02:28.986Z,63.54
2022-09-23T11:05:16.218Z,63.37
2022-09-23T11:07:53.454Z,63.43
2022-09-23T11:10:35.205Z,63.46
2022-09-23T11:13:15.421Z,63.44
2022-09-23T11:15:55.915Z,63.70
2022-09-23T11:18:23.767Z,63.68
2022-09-23T11:21:07.597Z,63.60
2022-09-23T11:23:44.881Z,63.90
2022-09-23T11:26:33.393Z,63.63
2022-09-23T11:29:04.564Z,63.83
2022-09-23T11:31:38.474Z,63.77
2022-09-23T11:34:21.187Z,63.83
2022-09-23T11:36:55.112Z,64.00
2022-09-23T11:39:37.146Z,64.04
2022-09-23T11:42:10.530Z,63.92
2022-09-23T11:44:42.149Z,64.04
2022-09-23T11:47:09.975Z,64.11
2022-09-23T11:49:47.425Z,64.09
2022-09-23T11:52:22.796Z,64.25
2022-09-23T11:54:55.525Z,64.37
2022-09-23T11:57:44.964Z,64.49
2022-09-23T12:00:16.848Z,64.80
2022-09-23T12:03:05.990Z,64.77
2022-09-23T12:05:40.828Z,65.05
2022-09-23T12:08:24.709Z,65.04
2022-09-23T12:10:52.709Z,65.04
2022-09-23T12:13:41.637Z,65.16
2022-09-23T12:16:27.304Z,65.25
2022-09-23T12:19:01.991Z,65.05
2022-09-23T12:24:44.233Z,65.24
2022-09-23T12:27:23.916Z,65.49
2022-09-23T12:30:02.325Z,65.52
2022-09-23T12:32:31.278Z,65.36
2022-09-23T12:35:01.133Z,65.38
2022-09-23T12:37:33.043Z,65.52
2022-09-23T12:40:06.227Z,65.71
2022-09-23T12:42:34.594Z,65.58
2022-09-23T12:45:35.563Z,65.58
2022-09-23T12:48:05.359Z,65.76
2022-09-23T12:50:52.242Z,65.57
2022-09-23T12:53:35.614Z,65.81
2022-09-23T12:56:15.761Z,65.80
2022-09-23T12:58:44.535Z,65.80
2022-09-23T13:01:15.774Z,65.80
2022-09-23T13:04:05.775Z,65.92
2022-09-23T13:06:46.458Z,66.04
2022-09-23T13:09:16.563Z,65.96
2022-09-23T13:11:46.317Z,66.20
2022-09-23T13:14:16.878Z,66.32
2022-09-23T13:16:46.600Z,66.36
2022-09-23T13:19:26.821Z,66.29
2022-09-23T13:21:54.797Z,66.57
2022-09-23T13:24:32.018Z,66.60
2022-09-23T13:27:02.963Z,66.67
2022-09-23T13:29:43.608Z,66.55
2022-09-23T13:32:16.107Z,66.56
2022-09-23T13:34:45.204Z,66.65
2022-09-23T13:37:23.059Z,66.61
2022-09-23T13:39:51.429Z,66.79
2022-09-23T13:42:28.263Z,66.93
2022-09-23T13:44:58.495Z,66.72
2022-09-23T13:47:28.519Z,67.04
2022-09-23T13:49:56.739Z,66.78
2022-09-23T13:52:27.458Z,66.69
2022-09-23T13:54:55.580Z,66.76
2022-09-23T13:57:33.931Z,67.10
2022-09-23T14:00:02.969Z,67.15
2022-09-23T14:02:31.226Z,67.23
2022-09-23T14:04:59.948Z,66.99
2022-09-23T14:07:28.042Z,67.07
2022-09-23T14:09:56.892Z,67.42
2022-09-23T14:12:24.842Z,67.57
2022-09-23T14:14:55.324Z,67.15
2022-09-23T14:17:26.328Z,67.23
2022-09-23T14:19:54.329Z,67.37
2022-09-23T14:22:26.524Z,67.21
2022-09-23T14:24:55.450Z,67.34
2022-09-23T14:27:29.484Z,67.38
2022-09-23T14:29:57.530Z,67.02
2022-09-23T14:32:28.411Z,67.34
2022-09-23T14:35:07.626Z,67.10
2022-09-23T14:38:03.787Z,67.17
2022-09-23T14:40:51.901Z,67.37
2022-09-23T14:43:30.178Z,67.11
2022-09-23T14:45:59.352Z,67.23
2022-09-23T14:48:27.427Z,67.32
2022-09-23T14:51:02.653Z,67.05
2022-09-23T14:53:38.654Z,66.79
2022-09-23T14:56:09.702Z,67.10
2022-09-23T14:58:49.505Z,66.86
2022-09-23T15:01:25.714Z,67.02
2022-09-23T15:03:54.651Z,66.93
2022-09-23T15:06:24.280Z,66.90
2022-09-23T15:08:53.095Z,66.80
2022-09-23T15:11:22.792Z,66.42
2022-09-23T15:13:53.690Z,66.49
2022-09-23T15:16:27.348Z,66.17
2022-09-23T15:18:57.061Z,66.29
2022-09-23T15:21:25.991Z,65.97
2022-09-23T15:23:55.959Z,65.70
2022-09-23T15:26:24.896Z,65.58
2022-09-23T15:28:56.897Z,65.03
2022-09-23T15:31:28.149Z,64.90
2022-09-23T15:33:56.914Z,64.76
2022-09-23T15:36:29.481Z,64.91
2022-09-23T15:39:02.454Z,64.74
2022-09-23T15:41:30.989Z,64.78
2022-09-23T15:43:59.219Z,64.61
2022-09-23T15:46:29.132Z,64.60
2022-09-23T15:49:02.326Z,64.31
2022-09-23T15:51:30.361Z,64.12
2022-09-23T15:53:58.721Z,63.70
2022-09-23T15:56:28.055Z,63.59
2022-09-23T15:58:55.949Z,63.24
2022-09-23T16:01:32.405Z,63.09
2022-09-23T16:04:02.421Z,62.84
2022-09-23T16:06:30.497Z,62.50
2022-09-23T16:08:58.533Z,62.16
2022-09-23T16:11:28.584Z,62.18
2022-09-23T16:13:56.538Z,61.62
2022-09-23T16:16:24.580Z,61.72
2022-09-23T16:18:52.446Z,61.33
2022-09-23T16:21:22.360Z,61.08
2022-09-23T16:23:50.983Z,60.97
2022-09-23T16:26:23.638Z,60.64
2022-09-23T16:28:52.743Z,60.17
2022-09-23T16:31:21.257Z,60.26
2022-09-23T16:33:52.239Z,60.28
2022-09-23T16:36:29.814Z,59.83
2022-09-23T16:38:57.863Z,59.65
2022-09-23T16:41:35.145Z,59.49
2022-09-23T16:44:05.385Z,59.52
2022-09-23T16:46:33.439Z,59.50
2022-09-23T16:49:01.906Z,59.28
2022-09-23T16:51:31.304Z,59.18
2022-09-23T16:54:00.280Z,58.61
2022-09-23T16:56:29.422Z,58.56
2022-09-23T16:58:57.552Z,58.21
2022-09-23T17:01:45.145Z,57.81
2022-09-23T17:04:14.457Z,57.55
2022-09-23T17:06:50.939Z,57.43
2022-09-23T17:09:20.902Z,57.29
2022-09-23T17:11:53.983Z,57.21
2022-09-23T17:14:22.022Z,56.89
2022-09-23T17:16:50.055Z,56.46
2022-09-23T17:19:18.020Z,56.33
2022-09-23T17:21:45.885Z,56.14
2022-09-23T17:24:13.861Z,56.00
2022-09-23T17:26:41.818Z,55.55
2022-09-23T17:29:10.823Z,55.49
2022-09-23T17:31:40.297Z,55.45
2022-09-23T17:34:08.196Z,54.99
2022-09-23T17:36:36.109Z,54.88
2022-09-23T17:39:03.967Z,54.81
2022-09-23T17:41:31.870Z,54.41
2022-09-23T17:44:01.405Z,54.34
2022-09-23T17:46:31.111Z,54.04
2022-09-23T17:48:59.124Z,53.81
2022-09-23T17:51:27.125Z,53.36
2022-09-23T17:53:55.119Z,53.40
2022-09-23T17:56:27.282Z,52.80
2022-09-23T17:58:55.470Z,52.93
2022-09-23T18:01:25.235Z,52.59
2022-09-23T18:03:56.308Z,52.48
2022-09-23T18:06:25.320Z,52.18
2022-09-23T18:08:53.363Z,51.87
2022-09-23T18:11:25.584Z,51.68
2022-09-23T18:13:54.940Z,51.97
2022-09-23T18:16:24.625Z,51.67
2022-09-23T18:18:56.700Z,51.36
2022-09-23T18:21:26.509Z,51.36
2022-09-23T18:23:59.856Z,51.16
2022-09-23T18:26:35.180Z,50.74
2022-09-23T18:29:03.488Z,50.65
2022-09-23T18:31:36.182Z,50.70
2022-09-23T18:34:05.914Z,49.36
2022-09-23T18:36:34.807Z,49.43
2022-09-23T18:39:02.825Z,49.69
2022-09-23T18:41:30.990Z,48.96
2022-09-23T18:43:59.150Z,49.08
2022-09-23T18:46:29.865Z,48.66
2022-09-23T18:49:16.591Z,48.63
2022-09-23T18:51:55.150Z,48.33
2022-09-23T18:54:23.630Z,47.96
2022-09-23T18:56:53.543Z,47.04
2022-09-23T18:59:24.701Z,47.42
2022-09-23T19:01:52.832Z,47.11
2022-09-23T19:04:21.663Z,46.44
2022-09-23T19:06:50.686Z,46.45
2022-09-23T19:09:19.820Z,46.07
2022-09-23T19:11:47.784Z,46.08
2022-09-23T19:14:15.779Z,46.08
2022-09-23T19:16:43.793Z,45.50
2022-09-23T19:19:11.919Z,45.36
2022-09-23T19:21:39.850Z,45.15
2022-09-23T19:24:08.544Z,44.93
2022-09-23T19:26:38.397Z,45.01
2022-09-23T19:29:09.078Z,44.76
2022-09-23T19:31:41.392Z,44.85
2022-09-23T19:34:13.246Z,42.59
2022-09-23T19:36:43.624Z,43.21
2022-09-23T19:39:22.643Z,44.00
2022-09-23T19:41:51.304Z,43.34
2022-09-23T19:44:20.820Z,43.10
2022-09-23T19:46:55.721Z,43.24
2022-09-23T19:49:25.554Z,41.81
2022-09-23T19:51:56.433Z,42.27
2022-09-23T19:54:27.675Z,41.87
2022-09-23T19:56:56.063Z,42.01
2022-09-23T19:59:24.079Z,41.48
2022-09-23T20:01:51.979Z,41.82
2022-09-23T20:04:19.874Z,41.82
2022-09-23T20:06:50.504Z,41.17
2022-09-23T20:09:18.524Z,40.87
2022-09-23T20:11:46.473Z,40.31
2022-09-23T20:14:14.749Z,40.04
2022-09-23T20:16:42.888Z,39.87
2022-09-23T20:19:10.818Z,39.73
2022-09-23T20:21:38.979Z,39.85
2022-09-23T20:24:08.055Z,39.24
2022-09-23T20:26:54.802Z,39.06
2022-09-23T20:29:24.938Z,38.04
2022-09-23T20:31:52.851Z,38.62
2022-09-23T20:34:22.115Z,38.64
2022-09-23T20:36:50.018Z,38.55
2022-09-23T20:39:17.958Z,38.17
2022-09-23T20:41:45.864Z,38.54
2022-09-23T20:44:13.894Z,38.61
2022-09-23T20:46:47.916Z,37.67
2022-09-23T20:49:17.676Z,37.04
2022-09-23T20:51:45.818Z,37.44
2022-09-23T20:54:13.704Z,37.22
2022-09-23T20:56:41.678Z,36.76
2022-09-23T20:59:10.504Z,36.96
2022-09-23T21:01:38.433Z,35.56
2022-09-23T21:04:06.706Z,36.40
2022-09-23T21:06:37.873Z,36.54
2022-09-23T21:09:06.981Z,35.90
2022-09-23T21:11:35.426Z,36.04
2022-09-23T21:14:03.599Z,35.85
2022-09-23T21:16:31.881Z,35.31
2022-09-23T21:19:00.423Z,33.07
2022-09-23T21:21:28.428Z,34.76
2022-09-23T21:24:07.075Z,34.55
2022-09-23T21:26:48.113Z,34.50
2022-09-23T21:29:16.108Z,34.23
2022-09-23T21:31:44.076Z,33.21
2022-09-23T21:34:12.597Z,32.45
2022-09-23T21:36:43.778Z,33.32
2022-09-23T21:39:12.398Z,32.83
2022-09-23T21:41:41.063Z,32.51
2022-09-23T21:44:09.359Z,32.32
2022-09-23T21:46:37.547Z,32.08
2022-09-23T21:49:05.863Z,32.04
2022-09-23T21:51:41.445Z,31.72
2022-09-23T21:54:12.910Z,30.72
2022-09-23T21:56:40.904Z,30.75
2022-09-23T21:59:09.064Z,29.87
2022-09-23T22:01:40.063Z,29.68
2022-09-23T22:04:14.219Z,30.13
2022-09-23T22:06:42.508Z,29.45
2022-09-23T22:09:13.076Z,30.04
2022-09-23T22:12:00.146Z,27.69
2022-09-23T22:14:28.219Z,29.79
2022-09-23T22:16:58.360Z,29.54
2022-09-23T22:19:27.763Z,28.94
2022-09-23T22:21:57.058Z,29.15
2022-09-23T22:24:25.058Z,28.48
2022-09-23T22:26:53.018Z,28.29
2022-09-23T22:29:39.623Z,28.39
2022-09-23T22:32:29.545Z,29.09
2022-09-23T22:34:58.177Z,29.03
2022-09-23T22:37:28.118Z,28.31
2022-09-23T22:39:56.104Z,27.87
2022-09-23T22:42:24.150Z,28.74
2022-09-23T22:44:52.114Z,28.70
2022-09-23T22:47:21.019Z,29.05
2022-09-23T22:49:49.397Z,28.82
2022-09-23T22:52:21.878Z,28.79
2022-09-23T22:54:49.863Z,29.84
2022-09-23T22:57:18.018Z,29.78
2022-09-23T22:59:48.922Z,29.81
2022-09-23T23:02:18.803Z,30.07
2022-09-23T23:04:50.293Z,30.54
2022-09-23T23:07:21.865Z,30.11
2022-09-23T23:09:53.394Z,30.67
2022-09-23T23:12:21.596Z,30.54
2022-09-23T23:14:50.270Z,30.93
2022-09-23T23:17:18.350Z,30.72
2022-09-23T23:19:46.299Z,30.99
2022-09-23T23:22:14.200Z,30.64
2022-09-23T23:24:42.147Z,30.97
2022-09-23T23:27:10.143Z,31.49
2022-09-23T23:29:38.073Z,31.15
2022-09-23T23:32:06.973Z,31.48
2022-09-23T23:34:34.989Z,31.54
2022-09-23T23:37:02.978Z,31.50
2022-09-23T23:39:31.497Z,31.54
2022-09-23T23:41:59.477Z,31.38
2022-09-23T23:44:27.942Z,31.84
2022-09-23T23:46:56.019Z,31.99
2022-09-23T23:49:24.085Z,31.70
2022-09-23T23:51:52.078Z,31.69
2022-09-23T23:54:20.104Z,31.66
2022-09-23T23:56:48.116Z,32.35
2022-09-23T23:59:16.281Z,32.34
